createdAt,value
2023-04-30T04:59:29.157Z,4.95
2023-04-30T05:01:57.496Z,5.60
2023-04-30T05:04:24.600Z,5.50
2023-04-30T05:06:51.435Z,5.03
2023-04-30T05:09:18.568Z,5.82
2023-04-30T05:11:46.028Z,5.50
2023-04-30T05:14:13.076Z,5.28
2023-04-30T05:16:40.349Z,5.60
2023-04-30T05:19:08.825Z,5.55
2023-04-30T05:21:36.106Z,5.57
2023-04-30T05:24:03.306Z,5.65
2023-04-30T05:26:30.409Z,5.50
2023-04-30T05:28:57.555Z,5.22
2023-04-30T05:31:24.554Z,5.20
2023-04-30T05:33:52.220Z,5.28
2023-04-30T05:36:20.496Z,5.50
2023-04-30T05:38:48.893Z,5.25
2023-04-30T05:41:15.786Z,5.30
2023-04-30T05:43:42.749Z,5.93
2023-04-30T05:46:09.830Z,5.43
2023-04-30T05:48:36.652Z,5.28
2023-04-30T05:51:04.135Z,5.32
2023-04-30T05:53:32.595Z,5.20
2023-04-30T05:55:59.705Z,4.93
2023-04-30T05:58:26.794Z,5.05
2023-04-30T06:00:53.835Z,5.03
2023-04-30T06:03:20.766Z,5.50
2023-04-30T06:05:47.979Z,4.93
2023-04-30T06:08:15.434Z,5.53
2023-04-30T06:10:44.125Z,5.05
2023-04-30T06:13:11.536Z,4.85
2023-04-30T06:15:38.955Z,4.88
2023-04-30T06:18:05.960Z,5.28
2023-04-30T06:20:33.237Z,5.07
2023-04-30T06:23:01.249Z,5.05
2023-04-30T06:25:28.151Z,5.15
2023-04-30T06:27:56.294Z,4.88
2023-04-30T06:30:23.216Z,4.88
2023-04-30T06:32:49.961Z,5.00
2023-04-30T06:35:16.781Z,5.00
2023-04-30T06:37:43.602Z,4.97
2023-04-30T06:40:10.947Z,5.15
2023-04-30T06:42:37.785Z,5.30
2023-04-30T06:45:06.985Z,5.00
2023-04-30T06:47:33.808Z,4.47
2023-04-30T06:50:00.610Z,4.07
2023-04-30T06:52:27.442Z,4.57
2023-04-30T06:54:54.204Z,4.95
2023-04-30T06:57:21.012Z,4.45
2023-04-30T06:59:47.900Z,4.75
2023-04-30T07:02:16.126Z,4.80
2023-04-30T07:04:42.909Z,4.75
2023-04-30T07:07:09.766Z,4.70
2023-04-30T07:09:36.555Z,4.70
2023-04-30T07:12:03.861Z,4.70
2023-04-30T07:14:30.569Z,4.75
2023-04-30T07:16:57.451Z,4.80
2023-04-30T07:19:25.582Z,4.88
2023-04-30T07:21:52.438Z,4.35
2023-04-30T07:24:19.165Z,4.43
2023-04-30T07:26:46.007Z,4.43
2023-04-30T07:29:12.814Z,4.40
2023-04-30T07:31:39.676Z,4.63
2023-04-30T07:34:06.530Z,4.88
2023-04-30T07:36:34.628Z,4.40
2023-04-30T07:39:01.638Z,4.85
2023-04-30T07:41:28.402Z,4.82
2023-04-30T07:43:55.206Z,4.88
2023-04-30T07:46:22.942Z,4.70
2023-04-30T07:48:49.802Z,4.65
2023-04-30T07:51:16.631Z,4.40
2023-04-30T07:53:44.986Z,4.53
2023-04-30T07:56:11.850Z,4.32
2023-04-30T07:58:38.613Z,4.65
2023-04-30T08:01:05.418Z,4.50
2023-04-30T08:03:32.242Z,4.68
2023-04-30T08:05:59.165Z,5.28
2023-04-30T08:08:25.980Z,4.43
2023-04-30T08:10:54.100Z,4.75
2023-04-30T08:13:20.943Z,4.72
2023-04-30T08:15:47.958Z,4.75
2023-04-30T08:18:14.720Z,4.30
2023-04-30T08:20:41.739Z,4.30
2023-04-30T08:23:08.604Z,4.30
2023-04-30T08:25:35.862Z,4.30
2023-04-30T08:28:07.259Z,4.00
2023-04-30T08:30:34.243Z,4.03
2023-04-30T08:33:01.471Z,4.45
2023-04-30T08:35:28.282Z,4.05
2023-04-30T08:37:55.263Z,4.00
2023-04-30T08:40:43.671Z,4.05
2023-04-30T08:43:15.356Z,4.05
2023-04-30T08:45:42.754Z,3.70
2023-04-30T08:48:12.519Z,4.10
2023-04-30T08:50:39.297Z,4.55
2023-04-30T08:53:07.696Z,4.10
2023-04-30T08:55:34.488Z,3.85
2023-04-30T08:58:01.255Z,3.63
2023-04-30T09:00:31.609Z,3.15
2023-04-30T09:03:00.640Z,3.45
2023-04-30T09:05:37.689Z,3.50
2023-04-30T09:08:08.120Z,3.15
2023-04-30T09:10:35.753Z,2.60
2023-04-30T09:13:06.787Z,3.30
2023-04-30T09:15:36.355Z,3.28
2023-04-30T09:18:07.809Z,3.30
2023-04-30T09:20:40.656Z,3.08
2023-04-30T09:23:08.849Z,3.40
2023-04-30T09:25:42.638Z,3.13
2023-04-30T09:28:10.639Z,3.30
2023-04-30T09:30:42.261Z,2.90
2023-04-30T09:33:11.657Z,2.80
2023-04-30T09:35:42.850Z,3.03
2023-04-30T09:38:31.822Z,2.85
2023-04-30T09:40:59.476Z,3.20
2023-04-30T09:43:26.440Z,3.13
2023-04-30T09:45:56.994Z,3.22
2023-04-30T09:48:24.504Z,3.10
2023-04-30T09:50:51.899Z,3.10
2023-04-30T09:53:20.982Z,2.90
2023-04-30T09:55:51.500Z,2.95
2023-04-30T09:58:22.967Z,3.22
2023-04-30T10:00:52.601Z,3.17
2023-04-30T10:03:24.784Z,3.40
2023-04-30T10:05:52.473Z,3.10
2023-04-30T10:08:28.073Z,3.15
2023-04-30T10:10:59.663Z,3.05
2023-04-30T10:13:31.432Z,3.13
2023-04-30T10:16:03.076Z,3.70
2023-04-30T10:18:34.902Z,3.30
2023-04-30T10:21:03.746Z,3.42
2023-04-30T10:23:30.758Z,3.38
2023-04-30T10:25:58.475Z,5.93
2023-04-30T10:28:25.569Z,3.85
2023-04-30T10:30:52.763Z,3.55
2023-04-30T10:33:27.912Z,3.92
2023-04-30T10:35:59.218Z,3.30
2023-04-30T10:38:28.633Z,3.13
2023-04-30T10:40:55.817Z,3.05
2023-04-30T10:43:24.679Z,2.67
2023-04-30T10:45:51.661Z,3.65
2023-04-30T10:48:21.958Z,2.83
2023-04-30T10:50:51.243Z,3.10
2023-04-30T10:53:20.344Z,3.50
2023-04-30T10:55:47.970Z,3.00
2023-04-30T10:58:25.661Z,3.00
2023-04-30T11:01:00.992Z,2.85
2023-04-30T11:03:29.490Z,2.70
2023-04-30T11:05:56.578Z,3.15
2023-04-30T11:08:34.715Z,2.97
2023-04-30T11:11:01.874Z,3.22
2023-04-30T11:13:28.914Z,2.90
2023-04-30T11:16:03.485Z,2.80
2023-04-30T11:18:31.059Z,2.83
2023-04-30T11:20:58.371Z,3.20
2023-04-30T11:23:38.360Z,2.88
2023-04-30T11:26:10.419Z,2.83
2023-04-30T11:28:38.063Z,3.10
2023-04-30T11:31:05.872Z,3.00
2023-04-30T11:33:34.085Z,2.88
2023-04-30T11:36:01.475Z,2.75
2023-04-30T11:38:30.294Z,2.85
2023-04-30T11:40:57.412Z,2.97
2023-04-30T11:43:26.907Z,2.90
2023-04-30T11:46:16.127Z,2.50
2023-04-30T11:48:45.376Z,2.80
2023-04-30T11:51:16.572Z,2.70
2023-04-30T11:53:45.301Z,2.53
2023-04-30T11:56:12.087Z,2.90
2023-04-30T11:58:40.336Z,2.88
2023-04-30T12:01:08.568Z,2.45
2023-04-30T12:03:41.315Z,2.65
2023-04-30T12:06:12.216Z,2.50
2023-04-30T12:08:41.703Z,2.13
2023-04-30T12:11:20.386Z,2.35
2023-04-30T12:13:53.084Z,2.20
2023-04-30T12:16:19.926Z,2.43
2023-04-30T12:18:47.150Z,2.00
2023-04-30T12:21:14.752Z,2.42
2023-04-30T12:23:42.326Z,2.45
2023-04-30T12:26:09.198Z,2.22
2023-04-30T12:28:36.065Z,2.20
2023-04-30T12:31:04.718Z,2.15
2023-04-30T12:33:31.964Z,2.33
2023-04-30T12:35:58.895Z,2.28
2023-04-30T12:38:25.715Z,2.38
2023-04-30T12:40:52.708Z,2.33
2023-04-30T12:43:19.745Z,2.15
2023-04-30T12:45:49.404Z,2.20
2023-04-30T12:48:19.392Z,2.30
2023-04-30T12:50:53.247Z,1.88
2023-04-30T12:53:20.251Z,1.92
2023-04-30T12:56:07.901Z,1.92
2023-04-30T12:58:35.725Z,2.38
2023-04-30T13:01:03.872Z,2.50
2023-04-30T13:03:32.323Z,2.00
2023-04-30T13:05:59.302Z,2.33
2023-04-30T13:08:26.117Z,2.30
2023-04-30T13:10:52.953Z,2.10
2023-04-30T13:13:19.730Z,2.30
2023-04-30T13:15:46.745Z,2.15
2023-04-30T13:18:13.872Z,2.10
2023-04-30T13:20:42.170Z,2.20
2023-04-30T13:23:09.157Z,2.10
2023-04-30T13:25:36.446Z,2.13
2023-04-30T13:28:03.277Z,1.80
2023-04-30T13:30:30.528Z,1.80
2023-04-30T13:32:57.480Z,1.73
2023-04-30T13:35:24.516Z,1.90
2023-04-30T13:37:53.048Z,1.77
2023-04-30T13:40:20.728Z,1.80
2023-04-30T13:42:48.871Z,1.90
2023-04-30T13:45:15.866Z,2.20
2023-04-30T13:47:43.013Z,1.90
2023-04-30T13:50:10.933Z,1.90
2023-04-30T13:52:37.781Z,2.22
2023-04-30T13:55:07.712Z,1.80
2023-04-30T13:57:34.814Z,2.10
2023-04-30T14:00:01.814Z,2.30
2023-04-30T14:02:29.094Z,2.03
2023-04-30T14:05:05.297Z,2.05
2023-04-30T14:07:32.535Z,2.00
2023-04-30T14:09:59.494Z,1.80
2023-04-30T14:12:27.689Z,2.08
2023-04-30T14:14:54.891Z,2.05
2023-04-30T14:17:21.798Z,1.92
2023-04-30T14:19:48.618Z,1.83
2023-04-30T14:22:15.678Z,1.80
2023-04-30T14:24:42.484Z,2.00
2023-04-30T14:27:09.420Z,1.70
2023-04-30T14:29:38.117Z,2.00
2023-04-30T14:32:06.865Z,2.40
2023-04-30T14:34:33.804Z,1.70
2023-04-30T14:37:02.036Z,1.90
2023-04-30T14:39:28.829Z,1.50
2023-04-30T14:41:56.012Z,1.52
2023-04-30T14:44:22.916Z,1.48
2023-04-30T14:46:51.275Z,1.60
2023-04-30T14:49:18.236Z,1.70
2023-04-30T14:51:45.025Z,1.63
2023-04-30T14:54:14.112Z,2.05
2023-04-30T14:56:41.177Z,2.17
2023-04-30T14:59:08.200Z,2.10
2023-04-30T15:01:35.100Z,2.00
2023-04-30T15:04:03.779Z,1.77
2023-04-30T15:06:30.722Z,1.98
2023-04-30T15:08:57.806Z,2.08
2023-04-30T15:11:24.949Z,2.20
2023-04-30T15:13:53.152Z,1.98
2023-04-30T15:16:19.916Z,2.55
2023-04-30T15:18:46.871Z,2.20
2023-04-30T15:21:15.219Z,2.28
2023-04-30T15:23:42.213Z,1.80
2023-04-30T15:26:09.046Z,2.00
2023-04-30T15:28:35.965Z,2.03
2023-04-30T15:31:03.508Z,1.83
2023-04-30T15:33:30.312Z,2.05
2023-04-30T15:35:57.346Z,1.90
2023-04-30T15:38:25.528Z,2.22
2023-04-30T15:40:52.412Z,2.05
2023-04-30T15:43:19.963Z,1.90
2023-04-30T15:45:46.835Z,1.90
2023-04-30T15:48:13.760Z,1.80
2023-04-30T15:50:40.624Z,1.40
2023-04-30T15:53:07.469Z,1.60
2023-04-30T15:55:36.243Z,1.67
2023-04-30T15:58:03.028Z,1.77
2023-04-30T16:00:29.903Z,2.13
2023-04-30T16:02:56.827Z,2.40
2023-04-30T16:05:23.873Z,2.30
2023-04-30T16:07:52.229Z,2.40
2023-04-30T16:10:19.224Z,2.10
2023-04-30T16:12:48.593Z,2.58
2023-04-30T16:15:15.668Z,2.20
2023-04-30T16:17:42.521Z,2.55
2023-04-30T16:20:10.906Z,2.85
2023-04-30T16:22:37.863Z,2.40
2023-04-30T16:25:05.348Z,2.40
2023-04-30T16:27:32.206Z,2.40
2023-04-30T16:30:00.317Z,2.30
2023-04-30T16:32:27.325Z,2.20
2023-04-30T16:34:54.256Z,2.30
2023-04-30T16:37:21.062Z,2.85
2023-04-30T16:39:47.812Z,2.45
2023-04-30T16:42:14.689Z,2.60
2023-04-30T16:44:41.435Z,2.30
2023-04-30T16:47:09.605Z,2.20
2023-04-30T16:49:36.390Z,2.10
2023-04-30T16:52:03.183Z,2.35
2023-04-30T16:54:29.990Z,2.25
2023-04-30T16:56:56.759Z,2.30
2023-04-30T16:59:23.806Z,2.40
2023-04-30T17:01:52.937Z,2.30
2023-04-30T17:04:23.504Z,2.53
2023-04-30T17:06:51.908Z,2.42
2023-04-30T17:09:19.379Z,2.13
2023-04-30T17:11:46.392Z,2.42
2023-04-30T17:14:13.408Z,2.70
2023-04-30T17:16:41.140Z,2.70
2023-04-30T17:19:08.266Z,2.60
2023-04-30T17:21:39.544Z,2.30
2023-04-30T17:24:06.717Z,2.42
2023-04-30T17:26:33.796Z,2.47
2023-04-30T17:29:01.528Z,2.70
2023-04-30T17:31:30.643Z,2.80
2023-04-30T17:33:58.169Z,2.78
2023-04-30T17:36:25.262Z,2.60
2023-04-30T17:38:53.727Z,2.60
2023-04-30T17:41:20.814Z,2.60
2023-04-30T17:43:47.677Z,2.45
2023-04-30T17:46:15.882Z,2.67
2023-04-30T17:48:42.972Z,2.53
2023-04-30T17:51:09.939Z,2.72
2023-04-30T17:53:37.059Z,2.58
2023-04-30T17:56:06.174Z,3.38
2023-04-30T17:58:34.112Z,3.30
2023-04-30T18:01:01.018Z,3.50
2023-04-30T18:03:28.818Z,3.17
2023-04-30T18:05:56.014Z,2.95
2023-04-30T18:08:23.493Z,3.47
2023-04-30T18:10:50.811Z,3.30
2023-04-30T18:13:19.274Z,3.05
2023-04-30T18:15:46.387Z,3.17
2023-04-30T18:18:13.542Z,3.40
2023-04-30T18:20:40.651Z,3.53
2023-04-30T18:23:09.289Z,2.80
2023-04-30T18:25:36.873Z,3.30
2023-04-30T18:28:03.868Z,3.75
2023-04-30T18:30:32.630Z,3.10
2023-04-30T18:33:00.154Z,3.10
2023-04-30T18:35:27.094Z,3.20
2023-04-30T18:37:54.173Z,3.08
2023-04-30T18:40:21.409Z,2.80
2023-04-30T18:42:48.724Z,3.30
2023-04-30T18:45:16.188Z,3.63
2023-04-30T18:47:45.118Z,3.40
2023-04-30T18:50:12.205Z,2.95
2023-04-30T18:52:39.350Z,3.47
2023-04-30T18:55:06.599Z,3.05
2023-04-30T18:57:33.543Z,2.58
2023-04-30T19:00:00.542Z,3.03
2023-04-30T19:02:27.622Z,3.00
2023-04-30T19:04:56.542Z,3.03
2023-04-30T19:07:23.501Z,2.90
2023-04-30T19:09:50.500Z,2.80
2023-04-30T19:12:17.592Z,2.90
2023-04-30T19:14:46.726Z,2.60
2023-04-30T19:17:13.771Z,2.97
2023-04-30T19:19:42.515Z,2.95
2023-04-30T19:22:15.786Z,2.90
2023-04-30T19:24:43.744Z,2.88
2023-04-30T19:27:11.053Z,2.80
2023-04-30T19:29:38.753Z,2.83
2023-04-30T19:32:06.516Z,3.20
2023-04-30T19:34:33.504Z,2.75
2023-04-30T19:37:00.670Z,2.70
2023-04-30T19:39:31.755Z,2.85
2023-04-30T19:41:59.249Z,2.70
2023-04-30T19:44:26.207Z,3.00
2023-04-30T19:46:53.373Z,3.30
2023-04-30T19:49:20.302Z,3.42
2023-04-30T19:51:47.490Z,3.25
2023-04-30T19:54:14.614Z,3.28
2023-04-30T19:56:50.914Z,3.20
2023-04-30T19:59:17.938Z,3.00
2023-04-30T20:01:45.109Z,3.00
2023-04-30T20:04:12.103Z,2.85
2023-04-30T20:06:39.208Z,3.00
2023-04-30T20:09:08.967Z,3.00
2023-04-30T20:11:36.145Z,3.40
2023-04-30T20:14:05.365Z,3.38
2023-04-30T20:16:33.008Z,3.30
2023-04-30T20:19:01.298Z,3.63
2023-04-30T20:21:28.278Z,3.35
2023-04-30T20:23:55.943Z,3.30
2023-04-30T20:26:23.134Z,3.60
2023-04-30T20:28:51.219Z,3.42
2023-04-30T20:31:23.916Z,5.93
2023-04-30T20:33:51.025Z,3.22
2023-04-30T20:36:18.038Z,3.50
2023-04-30T20:38:45.081Z,3.63
2023-04-30T20:41:12.047Z,3.10
2023-04-30T20:43:39.168Z,3.10
2023-04-30T20:46:06.074Z,2.95
2023-04-30T20:48:34.630Z,3.50
2023-04-30T20:51:01.765Z,3.60
2023-04-30T20:53:28.724Z,3.40
2023-04-30T20:55:56.363Z,3.80
2023-04-30T20:58:23.296Z,3.28
2023-04-30T21:00:50.359Z,3.78
2023-04-30T21:03:17.373Z,3.17
2023-04-30T21:05:47.023Z,3.38
2023-04-30T21:08:14.189Z,3.10
2023-04-30T21:10:41.283Z,3.30
2023-04-30T21:13:08.183Z,3.13
2023-04-30T21:15:35.895Z,3.67
2023-04-30T21:18:02.884Z,3.08
2023-04-30T21:20:30.684Z,3.45
2023-04-30T21:22:59.024Z,3.13
2023-04-30T21:25:26.108Z,4.88
2023-04-30T21:27:53.000Z,3.20
2023-04-30T21:30:19.977Z,2.80
2023-04-30T21:32:47.367Z,2.90
2023-04-30T21:35:14.589Z,3.03
2023-04-30T21:37:41.636Z,3.08
2023-04-30T21:40:11.024Z,3.17
2023-04-30T21:42:38.035Z,2.83
2023-04-30T21:45:05.632Z,3.00
2023-04-30T21:47:32.597Z,2.97
2023-04-30T21:49:59.527Z,3.58
2023-04-30T21:52:26.486Z,3.00
2023-04-30T21:54:53.306Z,3.30
2023-04-30T21:57:21.729Z,2.90
2023-04-30T21:59:48.829Z,3.33
2023-04-30T22:02:23.331Z,2.95
2023-04-30T22:04:50.914Z,3.30
2023-04-30T22:07:17.714Z,2.70
2023-04-30T22:09:44.966Z,3.30
2023-04-30T22:12:12.421Z,3.00
2023-04-30T22:14:40.933Z,2.80
2023-04-30T22:17:07.827Z,2.95
2023-04-30T22:19:34.821Z,3.05
2023-04-30T22:22:01.779Z,3.15
2023-04-30T22:24:28.738Z,3.35
2023-04-30T22:26:55.530Z,3.13
2023-04-30T22:29:22.466Z,3.20
2023-04-30T22:31:50.869Z,2.92
2023-04-30T22:34:17.954Z,3.53
2023-04-30T22:36:44.857Z,3.35
2023-04-30T22:39:11.759Z,3.13
2023-04-30T22:41:38.686Z,2.83
2023-04-30T22:44:05.576Z,3.08
2023-04-30T22:46:32.871Z,3.03
2023-04-30T22:49:01.331Z,2.80
2023-04-30T22:51:28.425Z,2.80
2023-04-30T22:53:55.440Z,2.92
2023-04-30T22:56:22.408Z,2.97
2023-04-30T22:58:49.253Z,3.08
2023-04-30T23:01:16.302Z,2.90
2023-04-30T23:03:43.264Z,2.65
2023-04-30T23:06:11.875Z,2.60
2023-04-30T23:08:39.517Z,2.80
2023-04-30T23:11:06.563Z,2.88
2023-04-30T23:13:33.974Z,2.85
2023-04-30T23:16:01.446Z,2.95
2023-04-30T23:18:28.609Z,3.10
2023-04-30T23:20:55.932Z,2.97
2023-04-30T23:23:24.543Z,2.72
2023-04-30T23:25:51.415Z,2.85
2023-04-30T23:28:18.348Z,2.70
2023-04-30T23:30:45.778Z,2.70
2023-04-30T23:33:12.917Z,3.00
2023-04-30T23:35:42.011Z,2.53
2023-04-30T23:38:14.554Z,2.80
2023-04-30T23:40:52.732Z,2.95
2023-04-30T23:43:19.644Z,3.20
2023-04-30T23:45:47.923Z,3.03
2023-04-30T23:48:14.756Z,3.22
2023-04-30T23:50:41.549Z,3.17
2023-04-30T23:53:09.046Z,3.15
2023-04-30T23:55:35.959Z,3.10
2023-04-30T23:58:04.387Z,2.95
